Time;durP1;ratioP1;P1;durP2;ratioP2;P2;SDS_P1;SDS_P2;PMS_P1;PMS_P2;Temp;Humidity;BMP_temperature;BMP_pressure;BME280_temperature;BME280_humidity;BME280_pressure;Samples;Min_cycle;Max_cycle;Signal;HPM_P1;HPM_P2
2023/01/20 00:06:54;;;;;;;0.60;0.60;;;;;;;5.02;66.55;99738.38;18492424;32;20107;-59
2023/01/20 00:16:58;;;;;;;0.85;0.85;;;;;;;5.21;66.33;99762.72;18493102;32;20365;-59
2023/01/20 00:27:03;;;;;;;1.10;1.10;;;;;;;5.13;66.56;99765.22;18494661;32;20151;-59
2023/01/20 00:37:07;;;;;;;0.47;0.47;;;;;;;5.26;66.43;99758.47;18494259;32;20093;-59
2023/01/20 00:47:11;;;;;;;4.37;1.58;;;;;;;5.32;66.64;99755.94;18493464;32;20136;-59
2023/01/20 00:57:14;;;;;;;0.70;0.70;;;;;;;5.52;66.41;99770.75;18493547;32;20115;-59
2023/01/20 01:07:19;;;;;;;1.73;1.62;;;;;;;5.68;66.11;99798.50;18492303;32;20088;-59
2023/01/20 01:17:22;;;;;;;0.65;0.65;;;;;;;5.63;66.03;99797.59;18491420;32;20138;-59
2023/01/20 01:27:27;;;;;;;0.90;0.90;;;;;;;5.58;66.50;99769.94;18498256;32;20100;-59
2023/01/20 01:37:30;;;;;;;0.50;0.50;;;;;;;5.56;66.36;99746.62;18501285;32;20140;-59
2023/01/20 01:47:35;;;;;;;2.20;2.08;;;;;;;5.34;66.32;99730.94;18499584;32;20141;-60
2023/01/20 01:57:38;;;;;;;0.70;0.70;;;;;;;4.57;69.18;99718.09;18499414;32;20158;-58
2023/01/20 02:07:45;;;;;;;0.80;0.80;;;;;;;4.90;68.17;99729.66;18499395;32;20448;-59
2023/01/20 02:17:58;;;;;;;0.70;0.70;;;;;;;5.14;66.97;99723.84;18499071;32;20088;-59
2023/01/20 02:28:19;;;;;;;0.60;0.60;;;;;;;5.31;66.29;99717.97;18498949;32;20444;-59
2023/01/20 02:38:28;;;;;;;0.70;0.70;;;;;;;5.19;66.41;99710.06;18497698;32;20104;-59
2023/01/20 02:48:35;;;;;;;0.55;0.55;;;;;;;5.23;65.99;99714.44;18498075;32;20453;-59
2023/01/20 02:58:43;;;;;;;0.95;0.95;;;;;;;5.38;66.01;99711.97;18499037;32;20085;-59
2023/01/20 03:08:48;;;;;;;0.75;0.75;;;;;;;5.46;65.69;99724.09;18497720;32;20143;-59
2023/01/20 03:18:54;;;;;;;0.60;0.60;;;;;;;5.48;65.92;99738.81;18497372;32;20103;-59
2023/01/20 03:28:58;;;;;;;0.80;0.80;;;;;;;5.33;66.42;99744.72;18497159;32;20129;-59
2023/01/20 03:39:04;;;;;;;0.70;0.70;;;;;;;5.44;66.02;99752.56;18496782;32;20096;-59
2023/01/20 03:49:10;;;;;;;0.60;0.60;;;;;;;5.52;66.21;99755.22;18496917;32;20115;-59
2023/01/20 03:59:16;;;;;;;0.65;0.65;;;;;;;5.67;65.39;99752.75;18496218;32;20092;-59
2023/01/20 04:09:23;;;;;;;0.60;0.60;;;;;;;5.51;66.30;99748.31;18496091;32;20107;-59
2023/01/20 04:19:27;;;;;;;0.60;0.60;;;;;;;5.37;66.30;99738.72;18496251;32;20529;-59
2023/01/20 04:29:31;;;;;;;0.90;0.90;;;;;;;5.64;65.64;99751.84;18494390;32;20358;-58
2023/01/20 04:39:35;;;;;;;0.73;0.73;;;;;;;5.73;65.20;99749.31;18493962;32;20100;-59
2023/01/20 04:49:38;;;;;;;1.55;0.90;;;;;;;5.57;65.88;99745.75;18493274;32;20426;-59
2023/01/20 04:59:43;;;;;;;2.22;2.12;;;;;;;5.58;66.03;99757.00;18497206;32;20111;-59
2023/01/20 05:09:46;;;;;;;3.95;1.23;;;;;;;5.61;66.30;99751.84;18501165;32;20452;-59
2023/01/20 05:19:51;;;;;;;0.95;0.95;;;;;;;5.51;66.85;99727.63;18500656;32;20088;-59
2023/01/20 05:29:54;;;;;;;0.65;0.65;;;;;;;5.40;67.49;99694.72;18500377;32;20100;-59
2023/01/20 05:39:58;;;;;;;1.25;1.23;;;;;;;5.51;66.76;99696.53;18499977;32;20111;-59
2023/01/20 05:50:02;;;;;;;0.60;0.60;;;;;;;5.47;66.78;99693.06;18499849;32;20485;-59
2023/01/20 06:00:08;;;;;;;0.60;0.60;;;;;;;5.38;67.06;99704.19;18499327;32;20111;-59
2023/01/20 06:10:12;;;;;;;0.70;0.70;;;;;;;5.69;66.42;99707.03;18499076;32;20697;-59
2023/01/20 06:20:17;;;;;;;0.55;0.55;;;;;;;5.97;65.79;99714.97;18498709;32;20093;-59
2023/01/20 06:30:20;;;;;;;0.90;0.90;;;;;;;5.88;66.25;99712.31;18498660;32;20108;-59
2023/01/20 06:40:24;;;;;;;1.15;1.05;;;;;;;5.71;66.91;99709.59;18498048;32;20726;-59
2023/01/20 06:50:27;;;;;;;0.50;0.50;;;;;;;5.62;67.27;99715.59;18496247;32;20105;-59
2023/01/20 07:00:32;;;;;;;0.73;0.73;;;;;;;5.74;67.09;99713.94;18495809;32;20096;-59
2023/01/20 07:10:36;;;;;;;0.77;0.77;;;;;;;5.74;67.39;99742.44;18484038;32;20112;-59
2023/01/20 07:20:42;;;;;;;1.23;1.23;;;;;;;5.96;66.98;99740.84;18437152;32;20144;-59
2023/01/20 07:30:45;;;;;;;0.68;0.68;;;;;;;6.03;66.96;99746.97;18432325;32;20108;-59
2023/01/20 07:40:50;;;;;;;0.90;0.90;;;;;;;6.11;66.67;99764.28;18447293;32;20434;-59
2023/01/20 07:51:01;;;;;;;1.00;1.00;;;;;;;6.28;66.15;99763.50;18495253;32;20102;-61
2023/01/20 08:01:11;;;;;;;0.87;0.87;;;;;;;6.42;65.46;99755.81;18495084;32;20138;-60
2023/01/20 08:11:17;;;;;;;1.98;1.87;;;;;;;6.23;66.45;99766.09;18495597;32;20175;-59
2023/01/20 08:21:23;;;;;;;0.70;0.70;;;;;;;6.22;66.60;99782.50;18495076;32;20483;-59
2023/01/20 08:31:27;;;;;;;0.50;0.50;;;;;;;6.24;66.74;99785.97;18496776;32;20093;-59
2023/01/20 08:41:33;;;;;;;1.98;1.87;;;;;;;6.43;66.02;99774.84;18501518;32;20124;-59
2023/01/20 08:51:36;;;;;;;0.60;0.60;;;;;;;6.47;66.35;99786.94;18500924;32;20160;-59
2023/01/20 09:01:42;;;;;;;0.85;0.85;;;;;;;6.80;65.18;99780.16;18499169;32;20097;-59
2023/01/20 09:11:49;;;;;;;0.60;0.60;;;;;;;6.58;65.92;99787.84;18496030;32;20162;-59
2023/01/20 09:21:54;;;;;;;0.82;0.82;;;;;;;6.78;64.40;99782.75;18500470;32;20154;-59
2023/01/20 09:31:58;;;;;;;1.98;0.70;;;;;;;6.84;64.09;99781.06;18500509;32;20092;-59
2023/01/20 10:03:02;;;;;;;0.60;0.60;;;;;;;6.96;63.27;99734.37;18499424;32;20084;-59
2023/01/20 10:13:09;;;;;;;0.70;0.70;;;;;;;6.77;63.21;99710.97;18499317;32;20692;-59
2023/01/20 10:23:18;;;;;;;1.25;1.25;;;;;;;6.91;62.21;99674.69;18498931;32;20111;-59
2023/01/20 10:33:26;;;;;;;0.62;0.62;;;;;;;7.01;62.17;99630.56;18498796;32;20150;-59
2023/01/20 10:43:30;;;;;;;1.00;1.00;;;;;;;7.17;61.41;99628.81;18498025;32;20084;-59
2023/01/20 10:53:43;;;;;;;1.65;1.55;;;;;;;7.64;59.31;99651.25;18496751;32;20096;-59
2023/01/20 11:03:49;;;;;;;0.60;0.60;;;;;;;6.94;60.15;99671.22;18497934;32;20089;-59
2023/01/20 11:13:53;;;;;;;0.80;0.80;;;;;;;6.57;63.42;99684.12;18497467;32;20092;-59
2023/01/20 11:23:58;;;;;;;0.80;0.80;;;;;;;6.98;61.77;99696.31;18496940;32;20141;-59
2023/01/20 11:34:03;;;;;;;0.60;0.60;;;;;;;7.24;60.58;99685.06;18492498;32;157796;-61
2023/01/20 11:44:08;;;;;;;0.70;0.70;;;;;;;7.62;59.23;99654.72;18496363;32;20107;-60
2023/01/20 11:54:16;;;;;;;0.60;0.60;;;;;;;7.48;59.33;99634.84;18496020;32;20089;-60
2023/01/20 12:04:39;;;;;;;0.70;0.70;;;;;;;7.53;58.30;99624.47;18493431;32;20092;-60
2023/01/20 12:14:47;;;;;;;0.60;0.60;;;;;;;7.47;58.50;99632.25;18483383;32;20112;-60
2023/01/20 12:25:09;;;;;;;0.68;0.68;;;;;;;7.04;57.61;99621.06;18493727;32;20778;-60
2023/01/20 12:35:13;;;;;;;0.70;0.70;;;;;;;6.92;59.33;99623.62;18493176;32;20100;-59
2023/01/20 12:45:32;;;;;;;0.57;0.57;;;;;;;7.03;60.08;99642.69;18492108;32;20073;-59
2023/01/20 12:55:47;;;;;;;2.72;2.53;;;;;;;6.86;61.53;99624.50;18491202;32;20093;-59
2023/01/20 13:06:14;;;;;;;1.00;1.00;;;;;;;6.82;62.76;99634.87;18490701;32;20153;-59
2023/01/20 13:16:22;;;;;;;0.62;0.62;;;;;;;6.99;63.04;99632.31;18254415;32;20118;-59
2023/01/20 13:26:27;;;;;;;0.62;0.62;;;;;;;7.00;62.98;99645.25;18231707;32;20110;-59
2023/01/20 13:36:31;;;;;;;0.62;0.62;;;;;;;6.89;64.35;99647.88;18234244;32;20122;-59
2023/01/20 13:46:50;;;;;;;0.60;0.60;;;;;;;6.88;64.53;99660.84;18288393;32;20186;-59
2023/01/20 13:56:53;;;;;;;0.52;0.52;;;;;;;6.74;64.94;99653.91;18494967;32;20354;-59
2023/01/20 14:06:57;;;;;;;0.80;0.60;;;;;;;6.51;65.40;99651.28;18496786;32;20152;-59
2023/01/20 14:17:01;;;;;;;0.60;0.60;;;;;;;6.60;65.39;99660.78;18495144;32;20096;-59
2023/01/20 14:27:15;;;;;;;0.73;0.73;;;;;;;6.73;65.20;99672.91;18496520;32;20403;-59
2023/01/20 14:37:24;;;;;;;0.52;0.52;;;;;;;6.57;65.33;99677.19;18496079;32;20096;-59
2023/01/20 14:47:30;;;;;;;0.70;0.70;;;;;;;6.48;64.72;99677.16;18495422;32;20089;-59
2023/01/20 14:57:34;;;;;;;0.70;0.70;;;;;;;6.40;64.75;99671.97;18481930;32;20115;-59
2023/01/20 15:07:39;;;;;;;0.93;0.93;;;;;;;6.20;65.08;99692.62;18467541;32;20081;-59
2023/01/20 15:18:03;;;;;;;0.90;0.90;;;;;;;6.26;65.15;99687.47;18485127;32;20112;-58
2023/01/20 15:28:21;;;;;;;0.70;0.70;;;;;;;6.18;64.93;99697.81;18494358;32;20110;-59
2023/01/20 15:38:27;;;;;;;0.62;0.62;;;;;;;6.14;65.68;99701.25;18496723;32;20095;-59
2023/01/20 15:48:32;;;;;;;4.37;1.85;;;;;;;6.70;68.14;99709.22;18494721;32;20142;-59
2023/01/20 15:58:37;;;;;;;0.85;0.85;;;;;;;6.30;65.96;99698.72;18424644;32;20137;-59
2023/01/20 16:08:44;;;;;;;1.10;1.10;;;;;;;6.21;65.99;99692.62;18365442;32;20119;-59
2023/01/20 16:18:48;;;;;;;0.75;0.75;;;;;;;6.23;65.78;99701.28;18365726;32;20089;-58
2023/01/20 16:28:55;;;;;;;2.20;1.23;;;;;;;6.20;65.53;99708.19;18363515;32;20093;-58
2023/01/20 16:38:58;;;;;;;0.60;0.60;;;;;;;5.97;66.26;99732.22;18364619;32;20081;-58
2023/01/20 16:49:03;;;;;;;0.70;0.70;;;;;;;6.03;65.95;99724.53;18373676;32;20607;-59
2023/01/20 16:59:06;;;;;;;0.73;0.73;;;;;;;4.34;70.99;99738.50;18434489;32;20120;-58
2023/01/20 17:09:11;;;;;;;0.95;0.95;;;;;;;4.78;69.97;99751.09;18436111;32;20448;-58
2023/01/20 17:19:14;;;;;;;1.35;1.35;;;;;;;5.19;67.70;99746.31;18435108;32;20097;-58
2023/01/20 17:29:21;;;;;;;4.43;3.62;;;;;;;5.54;66.47;99730.22;18435702;32;20100;-58
2023/01/20 17:39:25;;;;;;;3.90;3.12;;;;;;;5.39;67.24;99747.34;18435532;32;20089;-59
2023/01/20 17:49:30;;;;;;;0.62;0.62;;;;;;;5.40;67.07;99730.94;18434434;32;20089;-59
2023/01/20 17:59:34;;;;;;;2.62;2.40;;;;;;;5.35;67.42;99724.88;18435408;32;20187;-58
2023/01/20 18:09:38;;;;;;;0.73;0.73;;;;;;;5.50;66.66;99742.25;18436597;32;20107;-58
2023/01/20 18:19:46;;;;;;;0.60;0.60;;;;;;;3.67;71.78;99735.00;18473455;32;20093;-58
2023/01/20 18:29:50;;;;;;;1.52;1.42;;;;;;;5.02;68.30;99731.47;18433630;32;20080;-59
2023/01/20 18:39:53;;;;;;;1.00;1.00;;;;;;;5.71;66.13;99709.59;18433710;32;20101;-58
2023/01/20 18:49:58;;;;;;;2.62;2.45;;;;;;;5.66;65.82;99707.00;18434577;32;20119;-58
2023/01/20 19:00:01;;;;;;;0.77;0.77;;;;;;;4.92;68.03;99702.09;18433525;32;20120;-58
2023/01/20 19:10:07;;;;;;;0.50;0.50;;;;;;;5.57;66.86;99699.16;18433101;32;20097;-58
2023/01/20 19:20:11;;;;;;;3.45;3.12;;;;;;;5.45;67.30;99692.16;18431947;32;20109;-58
2023/01/20 19:30:18;;;;;;;0.60;0.60;;;;;;;5.57;66.69;99690.53;18432611;32;20116;-58
2023/01/20 19:40:21;;;;;;;0.60;0.60;;;;;;;5.57;66.48;99712.09;18432309;32;20094;-58
2023/01/20 19:50:26;;;;;;;0.75;0.75;;;;;;;5.51;66.87;99745.72;18432853;32;20663;-58
2023/01/20 20:00:29;;;;;;;0.70;0.70;;;;;;;5.61;67.23;99742.34;18431611;32;20093;-58
2023/01/20 20:10:34;;;;;;;0.62;0.62;;;;;;;5.55;66.65;99739.72;18432194;32;20097;-59
2023/01/20 20:20:37;;;;;;;0.60;0.60;;;;;;;5.55;67.08;99735.41;18452393;32;20088;-58
2023/01/20 20:30:43;;;;;;;1.10;1.00;;;;;;;5.45;67.17;99745.66;18489093;32;20088;-60
2023/01/20 20:40:46;;;;;;;0.70;0.70;;;;;;;5.50;67.30;99746.56;18489729;32;20124;-61
2023/01/20 20:50:52;;;;;;;0.98;0.98;;;;;;;5.66;67.16;99758.78;18490078;32;20121;-61
2023/01/20 21:00:57;;;;;;;1.33;1.23;;;;;;;5.54;67.48;99769.06;18489476;32;20145;-61
2023/01/20 21:11:02;;;;;;;2.55;2.35;;;;;;;5.81;66.30;99788.25;18489527;32;20106;-61
2023/01/20 21:21:07;;;;;;;0.60;0.60;;;;;;;5.53;66.03;99799.25;18486100;32;20464;-58
2023/01/20 21:31:14;;;;;;;4.50;1.42;;;;;;;5.51;66.47;99798.38;18481306;32;20115;-59
2023/01/20 21:41:18;;;;;;;0.60;0.60;;;;;;;5.51;66.46;99805.28;18489580;32;20118;-59
2023/01/20 22:01:43;;;;;;;;;;;;;;;5.51;66.96;99820.81;18489499;32;20107;-59
2023/01/20 22:11:47;;;;;;;2.67;2.58;;;;;;;5.60;66.92;99839.03;18497351;32;19980;-58
2023/01/20 22:21:50;;;;;;;1.10;1.10;;;;;;;5.66;66.81;99845.97;18498105;32;20097;-58
2023/01/20 22:31:56;;;;;;;0.90;0.90;;;;;;;5.74;66.76;99853.81;18495313;32;20097;-58
2023/01/20 22:41:59;;;;;;;0.65;0.65;;;;;;;5.71;67.12;99854.63;18491586;32;20103;-59
2023/01/20 22:52:04;;;;;;;1.75;1.52;;;;;;;5.43;67.17;99851.78;18458091;32;20092;-58
2023/01/20 23:02:08;;;;;;;0.68;0.68;;;;;;;5.51;66.77;99878.63;18485788;32;20104;-59
2023/01/20 23:12:12;;;;;;;0.68;0.68;;;;;;;5.57;66.81;99870.03;18490275;32;20077;-58
2023/01/20 23:22:16;;;;;;;0.77;0.77;;;;;;;5.73;66.89;99872.78;18497717;32;20162;-58
2023/01/20 23:32:20;;;;;;;0.60;0.60;;;;;;;5.56;67.51;99868.31;18489282;32;20114;-59
2023/01/20 23:42:23;;;;;;;1.23;0.80;;;;;;;5.60;67.43;99866.63;18490562;32;20092;-58
2023/01/20 23:52:28;;;;;;;0.60;0.60;;;;;;;5.51;67.38;99875.19;18495357;32;20112;-59
